Terminal Aerodrome Forecast
Issued by NWS

Home | Current Version | Previous Version | Text Only | Print | Product List | Glossary On
Versions: 1 2 3 4 5 6 7 8 9 10 11 12 13 14 15 16 17 18 19
000
FTUS43 KSGF 242300
TAFJLN
TAF
KJLN 242329Z 2500/2524 25007KT P6SM OVC017
     FM250400 21008KT P6SM BKN025
     FM250600 18011KT P6SM SKC
     FM251400 17016KT P6SM SKC WS017/21050KT
     FM251700 19023G34KT P6SM SKC
     FM252300 18018G26KT P6SM SKC WS020/19050KT=

USA.gov is the U.S. government's official web portal to all federal, state and local government web resources and services.